Corstorphine, United Kingdom
Current Conditions -  °F | °C
As of 5:50 PM on Friday 31 Oct 2014 (Local Time) from EGPH Reporting Station
Broken Clouds Broken Clouds  
Wind Chill: 18°   Ceiling: 2400
Heat Index: 18°   Visibility: 6mi
Dew Point: 13°   Wind: 17mph
Humidity: 73%   Direction: 210°SSW
Pressure: 29.65"   Gusts: NA
Location:  55.95°N, 3.32°W
Report Text: EGPH 311750Z 21015KT 9999 BKN024 18/13 Q1004
Loading
Personal Weather Stations






























Interactive Weather Map
Tropical Storm Tracking
New forecast layout! Learn more

10-Day Weather Forecast

Advertisements
Track Severe Weather on mobile